Decoded Metar for KPHF (NEWPORT NEWS in VA, USA) (IATA:PHF) | Meteo·Mobile Aviation Weather
aviador You're here:

KPHF Decoded Metar

NEWPORT NEWS in VA, USA
Report Time2018-09-21 11:54:00
UTC Time2018-09-21 12:34:46
Flight Rules vfr VFR
WindCalm
Visibility9999 m
Phenomena:N/A
Clouds:N/A
Expected CloudBase > 400 ft AGL from Temp-Dew spread
CeilingNone
Temp19°C (ISA +4)
Dew Point18°C (94% RH)
QNH1024 hPa
Density Alt420 ft
Elevation39 ft
Report Wrong Elevation
Raw Report
KPHF 211154Z 00000KT 10SM CLR 19/18 A3024 RMK AO2 SLP239 T01890183
10189 20161 51012 $=

Extra information for KPHF:More info

Metar Taf Metar & Taf Last 4 Metars F.Rules Stats Wind Profile Meteogram Temp Stats Airport Information Weather charts Add Link Nearby VenuesMetar ALERT Operation Metar Decoded Social comments

AIRNAV info for KPHF